LICC/CTA METAR and TAF weather

Enter ICAO airport designator
Station Type Date Time Source
LICC METAR 2021/09/24 06:50 UTC NOAA

LICC 240650Z 22004KT 9999 SCT040 22/18 Q1020


Station Type Date Time Source
LICC Decoded METAR 2021/09/24 06:50 UTC NOAA

Catania / Fontanarossa, Italy (LICC) 37-28N 015-03E 17M
Sep 24, 2021 - 02:50 AM EDT / 2021.09.24 0650 UTC
Wind: from the SW (220 degrees) at 5 MPH (4 KT):0
Visibility: greater than 7 mile(s):0
Sky conditions: partly cloudy
Temperature: 71 F (22 C)
Dew Point: 64 F (18 C)
Relative Humidity: 78%
Pressure (altimeter): 30.12 in. Hg (1020 hPa)
ob: LICC 240650Z 22004KT 9999 SCT040 22/18 Q1020
cycle: 7

Station Type Date Time Source
LICC TAF 2021/09/24 06:24 UTC NOAA

TAF LICC 240500Z 2406/2506 VRB05KT 9999 BKN030
BECMG 2408/2410 10010KT
BECMG 2417/2419 VRB05KT

Example: see airport list